createdAt,value
2022-11-21T00:01:40.369Z,-2.53
2022-11-21T00:04:42.710Z,-2.56
2022-11-21T00:07:50.204Z,-2.54
2022-11-21T00:10:52.862Z,-2.56
2022-11-21T00:13:55.182Z,-2.47
2022-11-21T00:16:58.075Z,-2.53
2022-11-21T00:20:00.574Z,-2.52
2022-11-21T00:23:03.617Z,-2.51
2022-11-21T00:26:10.219Z,-2.63
2022-11-21T00:29:12.614Z,-2.50
2022-11-21T00:32:15.436Z,-2.46
2022-11-21T00:35:17.753Z,-2.43
2022-11-21T00:38:20.202Z,-2.49
2022-11-21T00:41:23.806Z,-2.53
2022-11-21T00:44:26.922Z,-2.48
2022-11-21T00:47:29.935Z,-2.33
2022-11-21T00:50:33.098Z,-2.60
2022-11-21T00:53:35.556Z,-2.26
2022-11-21T00:56:38.201Z,-2.25
2022-11-21T00:59:40.641Z,-2.31
2022-11-21T01:02:42.999Z,-2.40
2022-11-21T01:05:45.415Z,-2.31
2022-11-21T01:08:47.956Z,-2.35
2022-11-21T01:11:50.589Z,-2.41
2022-11-21T01:14:53.417Z,-2.41
2022-11-21T01:17:55.810Z,-2.26
2022-11-21T01:21:21.377Z,-2.29
2022-11-21T01:24:24.431Z,-2.36
2022-11-21T01:27:27.607Z,-2.25
2022-11-21T01:30:30.086Z,-2.29
2022-11-21T01:33:34.294Z,-2.40
2022-11-21T01:36:37.915Z,-2.44
2022-11-21T01:39:40.509Z,-2.37
2022-11-21T01:43:04.581Z,-2.53
2022-11-21T01:46:10.366Z,-2.51
2022-11-21T01:49:25.449Z,-2.63
2022-11-21T01:52:31.977Z,-2.63
2022-11-21T01:55:35.526Z,-2.69
2022-11-21T01:58:39.497Z,-2.80
2022-11-21T02:01:42.362Z,-2.95
2022-11-21T02:04:45.708Z,-2.86
2022-11-21T02:07:49.638Z,-2.77
2022-11-21T02:10:57.693Z,-2.74
2022-11-21T02:14:01.330Z,-2.92
2022-11-21T02:17:06.762Z,-2.87
2022-11-21T02:20:12.366Z,-2.83
2022-11-21T02:23:20.994Z,-2.95
2022-11-21T02:26:23.862Z,-3.04
2022-11-21T02:29:26.853Z,-3.26
2022-11-21T02:32:35.304Z,-3.38
2022-11-21T02:35:37.988Z,-3.38
2022-11-21T02:38:40.542Z,-3.59
2022-11-21T02:42:25.150Z,-3.72
2022-11-21T02:45:32.725Z,-3.85
2022-11-21T02:48:37.253Z,-3.95
2022-11-21T02:51:39.747Z,-3.99
2022-11-21T02:54:42.888Z,-4.06
2022-11-21T02:57:46.689Z,-4.01
2022-11-21T03:00:50.891Z,-3.92
2022-11-21T03:03:53.495Z,-4.04
2022-11-21T03:06:56.034Z,-4.14
2022-11-21T03:09:58.654Z,-4.15
2022-11-21T03:13:01.692Z,-4.20
2022-11-21T03:16:04.741Z,-4.38
2022-11-21T03:19:10.369Z,-4.45
2022-11-21T03:22:17.208Z,-4.31
2022-11-21T03:25:20.425Z,-4.27
2022-11-21T03:28:23.605Z,-4.23
2022-11-21T03:31:27.499Z,-4.37
2022-11-21T03:34:29.865Z,-4.32
2022-11-21T03:37:33.796Z,-4.42
2022-11-21T03:40:36.069Z,-4.41
2022-11-21T03:43:38.331Z,-4.45
2022-11-21T03:46:42.852Z,-4.52
2022-11-21T03:49:45.355Z,-4.41
2022-11-21T03:52:47.724Z,-4.65
2022-11-21T03:55:50.790Z,-4.59
2022-11-21T03:58:56.825Z,-4.23
2022-11-21T04:02:00.090Z,-4.06
2022-11-21T04:05:02.975Z,-4.05
2022-11-21T04:08:05.584Z,-4.02
2022-11-21T04:11:08.303Z,-3.90
2022-11-21T04:14:10.676Z,-4.24
2022-11-21T04:17:13.198Z,-4.00
2022-11-21T04:20:16.666Z,-4.13
2022-11-21T04:23:19.294Z,-4.18
2022-11-21T04:26:21.867Z,-4.07
2022-11-21T04:29:24.475Z,-4.12
2022-11-21T04:32:27.444Z,-4.24
2022-11-21T04:35:30.219Z,-4.38
2022-11-21T04:38:32.662Z,-4.26
2022-11-21T04:41:35.544Z,-4.35
2022-11-21T04:44:38.117Z,-4.30
2022-11-21T04:47:41.978Z,-4.35
2022-11-21T04:50:46.358Z,-4.35
2022-11-21T04:53:48.756Z,-4.33
2022-11-21T04:56:51.988Z,-4.53
2022-11-21T04:59:54.709Z,-4.57
2022-11-21T05:03:03.011Z,-4.79
2022-11-21T05:06:05.519Z,-4.88
2022-11-21T05:09:08.790Z,-4.85
2022-11-21T05:12:30.120Z,-5.08
2022-11-21T05:15:33.281Z,-5.14
2022-11-21T05:18:36.232Z,-5.30
2022-11-21T05:21:38.982Z,-5.09
2022-11-21T05:24:41.425Z,-5.50
2022-11-21T05:27:44.963Z,-5.67
2022-11-21T05:30:47.921Z,-5.86
2022-11-21T05:33:50.372Z,-5.82
2022-11-21T05:36:59.217Z,-6.21
2022-11-21T05:40:01.934Z,-5.81
2022-11-21T05:43:23.264Z,-6.06
2022-11-21T05:46:27.005Z,-5.71
2022-11-21T05:49:30.072Z,-5.70
2022-11-21T05:52:32.534Z,-5.73
2022-11-21T05:55:35.471Z,-6.00
2022-11-21T05:58:38.125Z,-6.00
2022-11-21T06:01:59.378Z,-5.64
2022-11-21T06:05:02.217Z,-5.47
2022-11-21T06:08:05.207Z,-5.55
2022-11-21T06:11:08.883Z,-5.62
2022-11-21T06:14:11.282Z,-5.26
2022-11-21T06:17:13.852Z,-5.38
2022-11-21T06:20:16.494Z,-5.17
2022-11-21T06:23:19.851Z,-5.41
2022-11-21T06:26:24.219Z,-5.36
2022-11-21T06:29:26.805Z,-5.18
2022-11-21T06:32:29.395Z,-5.28
2022-11-21T06:35:32.424Z,-5.02
2022-11-21T06:38:35.092Z,-4.84
2022-11-21T06:41:37.485Z,-4.90
2022-11-21T06:44:39.947Z,-4.75
2022-11-21T06:47:42.813Z,-4.53
2022-11-21T06:50:45.403Z,-4.64
2022-11-21T06:53:48.786Z,-4.60
2022-11-21T06:56:54.314Z,-4.65
2022-11-21T06:59:56.551Z,-4.56
2022-11-21T07:03:03.591Z,-4.85
2022-11-21T07:06:07.397Z,-4.43
2022-11-21T07:12:52.259Z,-4.25
2022-11-21T07:15:56.857Z,-4.27
2022-11-21T07:19:00.824Z,-4.15
2022-11-21T07:22:03.370Z,-3.94
2022-11-21T07:25:06.911Z,-3.92
2022-11-21T07:28:10.459Z,-4.05
2022-11-21T07:31:14.372Z,-4.08
2022-11-21T07:34:16.997Z,-4.16
2022-11-21T07:37:19.384Z,-4.02
2022-11-21T07:40:22.218Z,-4.18
2022-11-21T07:43:27.374Z,-4.15
2022-11-21T07:46:31.959Z,-4.27
2022-11-21T07:49:35.013Z,-4.19
2022-11-21T07:52:37.977Z,-3.77
2022-11-21T07:55:41.141Z,-3.93
2022-11-21T07:58:43.919Z,-3.61
2022-11-21T08:01:48.029Z,-3.62
2022-11-21T08:04:50.603Z,-3.33
2022-11-21T08:07:53.212Z,-3.24
2022-11-21T08:10:55.624Z,-3.33
2022-11-21T08:13:59.846Z,-3.27
2022-11-21T08:17:02.183Z,-3.04
2022-11-21T08:20:05.294Z,-3.37
2022-11-21T08:23:08.083Z,-3.02
2022-11-21T08:26:10.775Z,-3.05
2022-11-21T08:29:15.522Z,-2.95
2022-11-21T08:32:18.835Z,-2.89
2022-11-21T08:35:21.302Z,-2.63
2022-11-21T08:38:24.006Z,-2.88
2022-11-21T08:41:45.379Z,-2.74
2022-11-21T08:44:48.143Z,-2.58
2022-11-21T08:47:50.737Z,-2.62
2022-11-21T08:50:53.560Z,-2.49
2022-11-21T08:53:56.744Z,-2.39
2022-11-21T08:56:59.606Z,-2.30
2022-11-21T09:00:02.406Z,-2.38
2022-11-21T09:03:06.110Z,-2.35
2022-11-21T09:06:08.454Z,-2.24
2022-11-21T09:09:11.003Z,-1.96
2022-11-21T09:12:13.337Z,-2.06
2022-11-21T09:15:34.355Z,-2.00
2022-11-21T09:18:37.064Z,-1.64
2022-11-21T09:21:39.450Z,-1.71
2022-11-21T09:24:42.112Z,-1.63
2022-11-21T09:27:44.914Z,-1.76
2022-11-21T09:30:47.201Z,-1.70
2022-11-21T09:33:54.813Z,-1.63
2022-11-21T09:36:57.949Z,-1.59
2022-11-21T09:40:01.147Z,-1.46
2022-11-21T09:43:44.555Z,-1.52
2022-11-21T09:46:48.776Z,-1.55
2022-11-21T09:50:03.112Z,-1.27
2022-11-21T09:53:37.818Z,-1.54
2022-11-21T09:56:42.989Z,-1.32
2022-11-21T09:59:47.131Z,-0.90
2022-11-21T10:07:27.440Z,-1.24
2022-11-21T10:10:51.613Z,-1.06
2022-11-21T10:14:18.774Z,-1.08
2022-11-21T10:17:39.566Z,-1.17
2022-11-21T10:20:54.356Z,-1.35
2022-11-21T10:24:07.721Z,-1.27
2022-11-21T10:27:22.087Z,-1.21
2022-11-21T10:30:24.533Z,-0.96
2022-11-21T10:33:34.666Z,-0.97
2022-11-21T10:36:38.699Z,-0.85
2022-11-21T10:39:46.527Z,-0.93
2022-11-21T10:43:46.632Z,-0.89
2022-11-21T10:46:59.722Z,-0.82
2022-11-21T10:50:40.038Z,-0.82
2022-11-21T10:54:07.307Z,-1.19
2022-11-21T10:57:17.861Z,-1.01
2022-11-21T11:00:23.802Z,-0.91
2022-11-21T11:03:26.129Z,-0.99
2022-11-21T11:06:29.718Z,-0.80
2022-11-21T11:09:34.475Z,-0.94
2022-11-21T11:12:55.944Z,-0.94
2022-11-21T11:16:24.910Z,-0.62
2022-11-21T11:19:35.660Z,-0.51
2022-11-21T11:22:42.750Z,-0.52
2022-11-21T11:25:49.187Z,-0.69
2022-11-21T11:28:53.341Z,-0.63
2022-11-21T11:31:58.963Z,-0.80
2022-11-21T11:35:03.236Z,-1.00
2022-11-21T11:38:06.612Z,-0.87
2022-11-21T11:41:26.411Z,-0.40
2022-11-21T11:45:14.071Z,-0.45
2022-11-21T11:48:17.766Z,-0.47
2022-11-21T11:51:27.075Z,-0.31
2022-11-21T11:54:47.111Z,-0.52
2022-11-21T11:57:52.167Z,-0.33
2022-11-21T12:01:01.631Z,-0.74
2022-11-21T12:04:25.850Z,-0.54
2022-11-21T12:11:25.068Z,-0.48
2022-11-21T12:15:04.976Z,-0.59
2022-11-21T12:18:16.705Z,-0.49
2022-11-21T12:21:19.774Z,-0.49
2022-11-21T12:24:22.614Z,-0.45
2022-11-21T12:27:32.645Z,-0.42
2022-11-21T12:30:46.311Z,-0.60
2022-11-21T12:34:00.148Z,-0.65
2022-11-21T12:37:05.141Z,-0.71
2022-11-21T12:40:22.233Z,-0.67
2022-11-21T12:43:24.769Z,-0.69
2022-11-21T12:46:38.548Z,-0.64
2022-11-21T12:50:02.221Z,-0.80
2022-11-21T12:53:36.289Z,-0.94
2022-11-21T12:56:51.691Z,-0.98
2022-11-21T13:00:40.023Z,-0.97
2022-11-21T13:04:03.097Z,-1.03
2022-11-21T13:07:06.663Z,-1.21
2022-11-21T13:10:14.608Z,-1.29
2022-11-21T13:13:26.863Z,-1.31
2022-11-21T13:16:37.663Z,-1.31
2022-11-21T13:20:28.756Z,-1.12
2022-11-21T13:23:42.977Z,-1.03
2022-11-21T13:26:50.721Z,-1.07
2022-11-21T13:30:11.699Z,-1.06
2022-11-21T13:33:35.979Z,-1.17
2022-11-21T13:36:40.503Z,-1.41
2022-11-21T13:39:43.871Z,-1.40
2022-11-21T13:43:32.482Z,-1.28
2022-11-21T13:47:01.534Z,-1.20
2022-11-21T13:50:31.598Z,-1.33
2022-11-21T13:53:58.482Z,-1.31
2022-11-21T13:57:19.289Z,-1.29
2022-11-21T14:00:55.652Z,-1.31
2022-11-21T14:04:21.375Z,-1.40
2022-11-21T14:07:34.718Z,-1.41
2022-11-21T14:10:37.393Z,-1.50
2022-11-21T14:13:40.025Z,-1.56
2022-11-21T14:16:47.187Z,-1.54
2022-11-21T14:19:50.620Z,-1.54
2022-11-21T14:23:06.898Z,-1.62
2022-11-21T14:26:16.192Z,-1.60
2022-11-21T14:29:47.671Z,-1.60
2022-11-21T14:32:54.399Z,-1.56
2022-11-21T14:36:24.957Z,-1.54
2022-11-21T14:39:37.748Z,-1.57
2022-11-21T14:42:41.367Z,-1.64
2022-11-21T14:45:50.374Z,-1.67
2022-11-21T14:48:53.903Z,-1.70
2022-11-21T14:52:00.080Z,-1.64
2022-11-21T14:58:28.208Z,-1.94
2022-11-21T15:01:32.822Z,-1.94
2022-11-21T15:04:36.776Z,-2.18
2022-11-21T15:07:48.218Z,-2.23
2022-11-21T15:10:54.865Z,-2.32
2022-11-21T15:14:17.555Z,-2.41
2022-11-21T15:17:22.766Z,-2.60
2022-11-21T15:20:26.300Z,-2.67
2022-11-21T15:23:47.280Z,-2.74
2022-11-21T15:26:52.637Z,-2.69
2022-11-21T15:30:03.353Z,-2.87
2022-11-21T15:33:11.595Z,-2.79
2022-11-21T15:36:15.465Z,-2.80
2022-11-21T15:39:23.031Z,-2.73
2022-11-21T15:42:35.453Z,-2.73
2022-11-21T15:45:39.144Z,-2.75
2022-11-21T15:48:42.454Z,-2.73
2022-11-21T15:55:21.727Z,-2.70
2022-11-21T15:58:24.698Z,-2.75
2022-11-21T16:01:33.110Z,-2.93
2022-11-21T16:04:36.782Z,-2.71
2022-11-21T16:07:39.485Z,-2.73
2022-11-21T16:10:42.226Z,-2.65
2022-11-21T16:13:49.836Z,-2.83
2022-11-21T16:16:52.509Z,-2.78
2022-11-21T16:19:55.472Z,-2.81
2022-11-21T16:22:58.273Z,-2.76
2022-11-21T16:26:01.263Z,-2.65
2022-11-21T16:29:06.659Z,-2.64
2022-11-21T16:32:09.822Z,-2.64
2022-11-21T16:35:12.298Z,-2.53
2022-11-21T16:38:16.229Z,-2.55
2022-11-21T16:41:20.189Z,-2.54
2022-11-21T16:44:22.547Z,-2.51
2022-11-21T16:47:24.922Z,-2.50
2022-11-21T16:50:27.392Z,-2.50
2022-11-21T16:53:31.276Z,-2.45
2022-11-21T16:56:34.736Z,-2.52
2022-11-21T16:59:38.311Z,-2.43
2022-11-21T17:02:41.009Z,-2.41
2022-11-21T17:05:43.225Z,-2.54
2022-11-21T17:08:47.160Z,-2.51
2022-11-21T17:11:49.747Z,-2.42
2022-11-21T17:14:55.101Z,-2.44
2022-11-21T17:18:01.543Z,-2.57
2022-11-21T17:21:09.206Z,-2.46
2022-11-21T17:24:14.880Z,-2.60
2022-11-21T17:27:18.676Z,-2.59
2022-11-21T17:30:22.831Z,-2.53
2022-11-21T17:33:26.008Z,-2.39
2022-11-21T17:36:29.713Z,-2.40
2022-11-21T17:39:32.522Z,-2.32
2022-11-21T17:42:35.435Z,-2.42
2022-11-21T17:45:38.452Z,-2.76
2022-11-21T17:48:41.336Z,-2.47
2022-11-21T17:51:44.266Z,-2.40
2022-11-21T17:54:47.163Z,-2.51
2022-11-21T17:57:49.770Z,-2.34
2022-11-21T18:01:00.338Z,-2.29
2022-11-21T18:04:11.679Z,-2.28
2022-11-21T18:07:17.855Z,-2.33
2022-11-21T18:10:42.319Z,-2.16
2022-11-21T18:13:44.721Z,-2.09
2022-11-21T18:16:52.784Z,-2.12
2022-11-21T18:19:56.218Z,-2.13
2022-11-21T18:22:59.234Z,-2.09
2022-11-21T18:26:06.788Z,-2.13
2022-11-21T18:29:35.195Z,-2.14
2022-11-21T18:32:35.540Z,-2.09
2022-11-21T18:35:37.854Z,-2.12
2022-11-21T18:38:53.639Z,-2.12
2022-11-21T18:42:00.779Z,-2.01
2022-11-21T18:45:04.750Z,-2.07
2022-11-21T18:48:07.186Z,-2.04
2022-11-21T18:51:22.310Z,-2.00
2022-11-21T18:54:26.226Z,-2.13
2022-11-21T18:57:29.707Z,-2.07
2022-11-21T19:00:33.442Z,-2.26
2022-11-21T19:03:36.414Z,-2.01
2022-11-21T19:06:39.161Z,-2.13
2022-11-21T19:09:41.856Z,-2.05
2022-11-21T19:12:45.375Z,-2.04
2022-11-21T19:15:48.207Z,-2.24
2022-11-21T19:19:25.995Z,-2.05
2022-11-21T19:22:14.270Z,-2.04
2022-11-21T19:25:16.934Z,-1.90
2022-11-21T19:28:19.870Z,-2.01
2022-11-21T19:31:29.688Z,-1.98
2022-11-21T19:34:33.506Z,-1.85
2022-11-21T19:37:36.798Z,-1.83
2022-11-21T19:40:58.206Z,-2.00
2022-11-21T19:44:01.941Z,-1.90
2022-11-21T19:47:04.734Z,-1.79
2022-11-21T19:50:07.753Z,-1.80
2022-11-21T19:53:10.220Z,-1.74
2022-11-21T19:56:19.775Z,-1.78
2022-11-21T19:59:22.909Z,-1.69
2022-11-21T20:02:25.655Z,-1.74
2022-11-21T20:05:29.440Z,-1.82
2022-11-21T20:08:31.898Z,-1.63
2022-11-21T20:11:35.544Z,-1.73
2022-11-21T20:14:38.016Z,-1.62
2022-11-21T20:17:40.706Z,-1.62
2022-11-21T20:20:43.523Z,-1.47
2022-11-21T20:23:46.552Z,-1.53
2022-11-21T20:26:49.128Z,-1.50
2022-11-21T20:29:53.022Z,-1.37
2022-11-21T20:32:55.507Z,-1.31
2022-11-21T20:36:03.910Z,-1.24
2022-11-21T20:39:08.922Z,-1.19
2022-11-21T20:42:12.787Z,-1.19
2022-11-21T20:48:38.902Z,-1.17
2022-11-21T20:53:36.619Z,-1.03
2022-11-21T20:55:07.474Z,-0.97
2022-11-21T20:58:10.423Z,-0.93
2022-11-21T21:01:15.306Z,-1.06
2022-11-21T21:04:18.192Z,-1.10
2022-11-21T21:07:20.928Z,-1.01
2022-11-21T21:10:25.742Z,-0.98
2022-11-21T21:13:29.363Z,-0.99
2022-11-21T21:16:34.550Z,-0.96
2022-11-21T21:19:36.956Z,-0.95
2022-11-21T21:22:39.777Z,-0.89
2022-11-21T21:25:42.941Z,-1.03
2022-11-21T21:28:46.143Z,-0.93
2022-11-21T21:31:52.858Z,-0.94
2022-11-21T21:34:56.339Z,-0.97
2022-11-21T21:37:58.723Z,-1.13
2022-11-21T21:41:01.980Z,-1.25
2022-11-21T21:44:04.520Z,-1.25
2022-11-21T21:47:11.264Z,-1.25
2022-11-21T21:50:16.011Z,-1.25
2022-11-21T21:53:19.409Z,-1.23
2022-11-21T21:56:22.667Z,-1.14
2022-11-21T21:59:25.863Z,-1.16
2022-11-21T22:02:28.547Z,-1.08
2022-11-21T22:05:32.546Z,-1.18
2022-11-21T22:08:36.746Z,-0.94
2022-11-21T22:11:40.034Z,-0.94
2022-11-21T22:14:42.325Z,-0.97
2022-11-21T22:17:45.037Z,-0.91
2022-11-21T22:20:48.781Z,-0.97
2022-11-21T22:24:17.778Z,-0.99
2022-11-21T22:27:15.884Z,-1.02
2022-11-21T22:30:18.812Z,-1.06
2022-11-21T22:33:21.266Z,-1.09
2022-11-21T22:36:24.014Z,-1.11
2022-11-21T22:39:27.849Z,-1.07
2022-11-21T22:42:31.425Z,-1.19
2022-11-21T22:45:35.384Z,-1.09
2022-11-21T22:48:38.627Z,-1.05
2022-11-21T22:51:41.045Z,-0.95
2022-11-21T22:54:43.692Z,-1.03
2022-11-21T22:57:46.147Z,-0.93
2022-11-21T23:00:49.125Z,-1.04
2022-11-21T23:03:52.789Z,-0.96
2022-11-21T23:06:55.519Z,-0.93
2022-11-21T23:10:01.560Z,-1.00
2022-11-21T23:13:03.982Z,-1.01
2022-11-21T23:16:07.252Z,-0.92
2022-11-21T23:19:09.619Z,-0.90
2022-11-21T23:22:13.882Z,-0.91
2022-11-21T23:25:19.412Z,-0.87
2022-11-21T23:28:22.369Z,-0.84
2022-11-21T23:31:24.792Z,-0.80
2022-11-21T23:34:27.769Z,-0.85
2022-11-21T23:37:30.171Z,-0.91
2022-11-21T23:40:33.418Z,-1.02
2022-11-21T23:43:35.911Z,-0.90
2022-11-21T23:46:38.488Z,-0.92
2022-11-21T23:49:43.731Z,-0.92
2022-11-21T23:52:50.138Z,-0.86
2022-11-21T23:55:52.615Z,-0.95
2022-11-21T23:58:55.440Z,-1.01
